createdAt,value
2019-02-10T03:08:18.060Z,25.8
2019-02-10T03:09:07.532Z,25.7
2019-02-10T03:09:58.098Z,25.6
2019-02-10T03:10:48.292Z,25.5
2019-02-10T03:11:38.537Z,25.4
2019-02-10T03:12:28.550Z,25.4
2019-02-10T03:13:18.569Z,25.4
2019-02-10T03:14:08.419Z,25.4
2019-02-10T03:14:59.022Z,25.3
2019-02-10T03:15:48.812Z,25.4
2019-02-10T03:16:39.126Z,25.4
2019-02-10T03:17:28.380Z,25.4
2019-02-10T03:18:19.118Z,25.4
2019-02-10T03:19:08.992Z,25.4
2019-02-10T03:19:59.142Z,25.5
2019-02-10T03:20:49.389Z,25.6
2019-02-10T03:21:39.174Z,25.6
2019-02-10T03:22:29.267Z,25.6
2019-02-10T03:23:19.005Z,25.7
2019-02-10T03:24:09.667Z,25.8
2019-02-10T03:24:59.157Z,25.9
2019-02-10T03:25:49.016Z,26.1
2019-02-10T03:26:39.789Z,26.2
2019-02-10T03:27:29.037Z,26.3
2019-02-10T03:28:19.881Z,26.4
2019-02-10T03:29:09.394Z,26.4
2019-02-10T03:29:59.227Z,26.6
2019-02-10T03:30:50.250Z,26.6
2019-02-10T03:31:40.480Z,26.7
2019-02-10T03:32:29.631Z,26.8
2019-02-10T03:33:20.330Z,26.8
2019-02-10T03:34:10.453Z,26.9
2019-02-10T03:35:00.276Z,26.9
2019-02-10T03:35:49.562Z,26.9
2019-02-10T03:36:40.206Z,26.9
2019-02-10T03:37:34.463Z,26.9
2019-02-10T03:38:19.853Z,26.8
2019-02-10T03:39:10.145Z,26.8
2019-02-10T03:40:00.451Z,26.7
2019-02-10T03:40:50.178Z,26.7
2019-02-10T03:41:40.821Z,26.6
2019-02-10T03:42:30.608Z,26.6
2019-02-10T03:43:20.363Z,26.5
2019-02-10T03:44:10.178Z,26.4
2019-02-10T03:45:00.691Z,26.4
2019-02-10T03:45:50.529Z,26.3
2019-02-10T03:46:40.867Z,26.3
2019-02-10T03:47:31.327Z,26.2
2019-02-10T03:48:21.285Z,26.1
2019-02-10T03:49:10.547Z,26.1
2019-02-10T03:50:01.153Z,26.1
2019-02-10T03:50:51.152Z,26.1
2019-02-10T03:51:41.282Z,26.2
2019-02-10T03:52:30.534Z,26.3
2019-02-10T03:53:21.063Z,26.3
2019-02-10T03:54:10.890Z,26.4
2019-02-10T03:55:01.378Z,26.5
2019-02-10T03:55:51.315Z,26.6
2019-02-10T03:56:41.050Z,26.7
2019-02-10T03:57:31.922Z,26.8
2019-02-10T03:58:21.420Z,26.8
2019-02-10T03:59:11.810Z,26.9
2019-02-10T04:00:01.520Z,26.9
2019-02-10T04:00:51.569Z,27
2019-02-10T04:01:42.171Z,27
2019-02-10T04:02:31.424Z,26.9
2019-02-10T04:03:22.069Z,26.9
2019-02-10T04:04:11.619Z,26.8
2019-02-10T04:05:02.297Z,26.7
2019-02-10T04:05:52.221Z,26.6
2019-02-10T04:06:41.669Z,26.4
2019-02-10T04:07:41.471Z,26.4
2019-02-10T04:08:22.061Z,26.3
2019-02-10T04:09:12.426Z,26.3
2019-02-10T04:10:02.481Z,26.2
2019-02-10T04:10:52.588Z,26.1
2019-02-10T04:11:41.754Z,25.9
2019-02-10T04:12:32.650Z,25.8
2019-02-10T04:13:23.008Z,25.8
2019-02-10T04:14:12.816Z,25.7
2019-02-10T04:15:02.143Z,25.6
2019-02-10T04:15:52.068Z,25.5
2019-02-10T04:16:43.265Z,25.4
2019-02-10T04:17:33.308Z,25.4
2019-02-10T04:18:22.846Z,25.4
2019-02-10T04:19:13.087Z,25.4
2019-02-10T04:20:03.288Z,25.4
2019-02-10T04:20:53.173Z,25.5
2019-02-10T04:21:43.259Z,25.5
2019-02-10T04:22:33.678Z,25.5
2019-02-10T04:23:23.395Z,25.5
2019-02-10T04:24:12.632Z,25.5
2019-02-10T04:25:03.790Z,25.6
2019-02-10T04:25:53.335Z,25.6
2019-02-10T04:26:43.417Z,25.7
2019-02-10T04:27:33.385Z,25.6
2019-02-10T04:28:23.236Z,25.6
2019-02-10T04:29:13.787Z,25.5
2019-02-10T04:30:04.180Z,25.4
2019-02-10T04:30:53.912Z,25.4
2019-02-10T04:31:44.231Z,25.3
2019-02-10T04:32:34.053Z,25.3
2019-02-10T04:33:24.391Z,25.2
2019-02-10T04:34:14.506Z,25.2
2019-02-10T04:35:03.714Z,25.1
2019-02-10T04:35:53.977Z,25.1
2019-02-10T04:36:43.718Z,25.2
2019-02-10T04:37:33.832Z,25.2
2019-02-10T04:38:23.856Z,25.2
2019-02-10T04:39:14.479Z,25.2
2019-02-10T04:40:04.807Z,25.3
2019-02-10T04:40:54.582Z,25.3
2019-02-10T04:41:44.140Z,25.3
2019-02-10T04:42:33.889Z,25.3
2019-02-10T04:43:24.451Z,25.4
2019-02-10T04:44:14.249Z,25.4
2019-02-10T04:45:04.761Z,25.4
2019-02-10T04:45:54.417Z,25.4
2019-02-10T04:46:43.860Z,25.3
2019-02-10T04:47:35.041Z,25.3
2019-02-10T04:48:24.279Z,25.2
2019-02-10T04:49:15.168Z,25.1
2019-02-10T04:50:04.705Z,25.1
2019-02-10T04:50:55.277Z,25.1
2019-02-10T04:51:45.073Z,24.9
2019-02-10T04:52:35.158Z,25
2019-02-10T04:53:25.746Z,25
2019-02-10T04:54:15.493Z,25
2019-02-10T04:55:05.471Z,25
2019-02-10T04:55:55.631Z,25
2019-02-10T04:56:45.406Z,25
2019-02-10T04:57:35.485Z,25
2019-02-10T04:58:25.503Z,25
2019-02-10T04:59:15.868Z,25.1
2019-02-10T05:00:05.913Z,25.1
2019-02-10T05:00:56.232Z,25.1
2019-02-10T05:01:46.023Z,25.1
2019-02-10T05:02:35.843Z,25.2
2019-02-10T05:03:25.280Z,25.2
2019-02-10T05:04:15.640Z,25.2
2019-02-10T05:05:06.306Z,25.1
2019-02-10T05:05:56.315Z,25.1
2019-02-10T05:06:46.177Z,25
2019-02-10T05:07:36.442Z,25
2019-02-10T05:08:26.722Z,24.9
2019-02-10T05:09:16.278Z,24.9
2019-02-10T05:10:06.454Z,24.9
2019-02-10T05:10:56.825Z,24.8
2019-02-10T05:11:47.017Z,24.8
2019-02-10T05:12:36.785Z,24.8
2019-02-10T05:13:26.265Z,24.8
2019-02-10T05:14:15.773Z,24.8
2019-02-10T05:15:06.636Z,24.8
2019-02-10T05:15:56.763Z,24.9
2019-02-10T05:16:49.393Z,24.8
2019-02-10T05:17:36.825Z,24.9
2019-02-10T05:18:27.153Z,24.9
2019-02-10T05:19:16.724Z,24.9
2019-02-10T05:20:07.387Z,24.9
2019-02-10T05:20:56.795Z,25
2019-02-10T05:21:46.868Z,25.1
2019-02-10T05:22:39.218Z,25.1
2019-02-10T05:23:27.237Z,25
2019-02-10T05:24:17.703Z,24.9
2019-02-10T05:25:07.942Z,24.9
2019-02-10T05:25:57.972Z,24.9
2019-02-10T05:26:47.189Z,24.8
2019-02-10T05:27:38.113Z,24.8
2019-02-10T05:28:27.874Z,24.7
2019-02-10T05:29:17.669Z,24.7
2019-02-10T05:30:07.537Z,24.6
2019-02-10T05:30:58.064Z,24.7
2019-02-10T05:31:47.904Z,24.6
2019-02-10T05:32:37.910Z,24.6
2019-02-10T05:33:27.787Z,24.6
2019-02-10T05:34:18.039Z,24.6
2019-02-10T05:35:08.144Z,24.6
2019-02-10T05:35:58.379Z,24.6
2019-02-10T05:36:47.941Z,24.6
2019-02-10T05:37:38.799Z,24.7
2019-02-10T05:38:28.536Z,24.7
2019-02-10T05:39:18.918Z,24.8
2019-02-10T05:40:08.409Z,24.8
2019-02-10T05:40:58.447Z,24.9
2019-02-10T05:41:48.579Z,24.8
2019-02-10T05:42:38.126Z,24.7
2019-02-10T05:43:28.691Z,24.6
2019-02-10T05:44:18.835Z,24.6
2019-02-10T05:45:08.824Z,24.5
2019-02-10T05:45:58.350Z,24.4
2019-02-10T05:46:48.361Z,24.4
2019-02-10T05:47:38.479Z,24.4
2019-02-10T05:48:29.022Z,24.4
2019-02-10T05:49:18.532Z,24.4
2019-02-10T05:50:09.340Z,24.4
2019-02-10T05:50:58.862Z,24.5
2019-02-10T05:51:48.959Z,24.4
2019-02-10T05:52:39.540Z,24.4
2019-02-10T05:53:29.553Z,24.5
2019-02-10T05:54:19.637Z,24.6
2019-02-10T05:55:09.783Z,24.6
2019-02-10T05:56:00.032Z,24.7
2019-02-10T05:56:49.828Z,24.8
2019-02-10T05:57:40.125Z,24.9
2019-02-10T05:58:28.800Z,25
2019-02-10T05:59:19.698Z,25.1
2019-02-10T06:00:10.142Z,25.2
2019-02-10T06:00:59.297Z,25.2
2019-02-10T06:01:50.125Z,25.2
2019-02-10T06:02:40.448Z,25.2
2019-02-10T06:03:30.296Z,25.2
2019-02-10T06:06:18.280Z,25.1
2019-02-10T06:07:08.177Z,25.1
2019-02-10T06:07:58.037Z,25.1
2019-02-10T06:08:48.000Z,25.1
2019-02-10T06:09:36.923Z,25
2019-02-10T06:10:28.785Z,25
2019-02-10T06:11:18.272Z,24.9
2019-02-10T06:12:08.397Z,24.9
2019-02-10T06:12:58.673Z,24.9
2019-02-10T06:13:47.981Z,24.9
2019-02-10T06:14:38.846Z,25
2019-02-10T06:15:28.960Z,25.1
2019-02-10T06:16:18.678Z,25.2
2019-02-10T06:17:08.101Z,25.3
2019-02-10T06:17:59.031Z,25.4
2019-02-10T06:18:48.852Z,25.4
2019-02-10T06:19:39.066Z,25.5
2019-02-10T06:20:29.168Z,25.5
2019-02-10T06:21:20.138Z,25.6
2019-02-10T06:22:23.173Z,25.4
2019-02-10T06:22:58.988Z,25.3
2019-02-10T06:23:48.353Z,25.3
2019-02-10T06:24:38.746Z,25.2
2019-02-10T06:25:28.931Z,25.1
2019-02-10T06:26:19.111Z,24.9
2019-02-10T06:27:09.184Z,24.8
2019-02-10T06:27:59.782Z,24.8
2019-02-10T06:28:48.173Z,24.7
2019-02-10T06:29:39.055Z,24.7
2019-02-10T06:30:29.371Z,24.6
2019-02-10T06:31:19.455Z,24.5
2019-02-10T06:32:09.533Z,24.4
2019-02-10T06:32:59.256Z,24.4
2019-02-10T06:33:49.575Z,24.3
2019-02-10T06:34:39.092Z,24.3
2019-02-10T06:35:29.281Z,24.2
2019-02-10T06:36:21.562Z,24.2
2019-02-10T06:37:09.118Z,24.3
2019-02-10T06:37:59.100Z,24.3
2019-02-10T06:38:49.713Z,24.4
2019-02-10T06:39:40.639Z,24.4
2019-02-10T06:40:29.280Z,24.4
2019-02-10T06:41:20.660Z,24.5
2019-02-10T06:42:10.170Z,24.6
2019-02-10T06:42:59.675Z,24.6
2019-02-10T06:43:50.257Z,24.7
2019-02-10T06:44:39.539Z,24.8
2019-02-10T06:45:30.659Z,24.9
2019-02-10T06:46:20.078Z,25
2019-02-10T06:47:10.017Z,25.1
2019-02-10T06:48:01.629Z,25.2
2019-02-10T06:48:50.129Z,25.2
2019-02-10T06:49:40.719Z,25.1
2019-02-10T06:50:31.020Z,25
2019-02-10T06:51:20.225Z,24.9
2019-02-10T06:52:10.829Z,24.8
2019-02-10T06:53:00.366Z,24.8
2019-02-10T06:53:50.689Z,24.6
2019-02-10T06:54:41.061Z,24.6
2019-02-10T06:55:30.787Z,24.5
2019-02-10T06:56:21.126Z,24.4
2019-02-10T06:57:11.741Z,24.4
2019-02-10T06:58:00.964Z,24.3
2019-02-10T06:58:52.098Z,24.3
2019-02-10T06:59:41.088Z,24.3
2019-02-10T07:00:31.735Z,24.2
2019-02-10T07:01:21.217Z,24.1
2019-02-10T07:02:11.246Z,24.1
2019-02-10T07:03:01.381Z,24
2019-02-10T07:03:51.373Z,24
2019-02-10T07:06:16.837Z,24.2
2019-02-10T07:07:08.048Z,24.3
2019-02-10T07:07:57.551Z,24.3
2019-02-10T07:08:47.630Z,24.4
2019-02-10T07:09:37.917Z,24.4
2019-02-10T07:10:27.948Z,24.5
2019-02-10T07:11:16.953Z,24.6
2019-02-10T07:12:07.775Z,24.7
2019-02-10T07:12:58.400Z,24.8
2019-02-10T07:13:48.448Z,24.9
2019-02-10T07:14:38.532Z,24.8
2019-02-10T07:15:28.065Z,24.7
2019-02-10T07:16:18.370Z,24.6
2019-02-10T07:17:07.846Z,24.5
2019-02-10T07:17:58.448Z,24.4
2019-02-10T07:18:48.220Z,24.3
2019-02-10T07:19:38.625Z,24.3
2019-02-10T07:20:28.425Z,24.2
2019-02-10T07:21:18.772Z,24.2
2019-02-10T07:22:08.479Z,24.1
2019-02-10T07:22:59.113Z,24.1
2019-02-10T07:23:49.190Z,24.1
2019-02-10T07:24:38.398Z,24
2019-02-10T07:25:29.525Z,23.9
2019-02-10T07:26:18.783Z,23.9
2019-02-10T07:27:09.112Z,23.9
2019-02-10T07:27:59.137Z,23.9
2019-02-10T07:28:49.499Z,23.9
2019-02-10T07:29:39.276Z,24
2019-02-10T07:30:29.354Z,24.1
2019-02-10T07:31:19.706Z,24.1
2019-02-10T07:32:08.919Z,24.1
2019-02-10T07:32:59.517Z,24.2
2019-02-10T07:33:49.566Z,24.3
2019-02-10T07:34:47.646Z,24.3
2019-02-10T07:35:29.791Z,24.4
2019-02-10T07:36:19.508Z,24.5
2019-02-10T07:37:10.413Z,24.6
2019-02-10T07:38:00.442Z,24.5
2019-02-10T07:38:49.884Z,24.4
2019-02-10T07:39:39.704Z,24.3
2019-02-10T07:40:29.188Z,24.3
2019-02-10T07:41:19.847Z,24.2
2019-02-10T07:42:09.858Z,24.1
2019-02-10T07:42:59.391Z,24.1
2019-02-10T07:43:50.101Z,24
2019-02-10T07:44:40.028Z,23.9
2019-02-10T07:45:29.866Z,23.9
2019-02-10T07:46:20.206Z,23.9
2019-02-10T07:47:09.936Z,23.9
2019-02-10T07:48:01.714Z,23.9
2019-02-10T07:48:50.693Z,23.8
2019-02-10T07:49:40.460Z,23.8
2019-02-10T07:50:30.518Z,23.7
2019-02-10T07:51:21.068Z,23.6
2019-02-10T07:52:09.783Z,23.6
2019-02-10T07:53:00.218Z,23.6
2019-02-10T07:53:49.643Z,23.6
2019-02-10T07:54:48.266Z,23.7
2019-02-10T07:55:29.743Z,23.8
2019-02-10T07:56:21.417Z,23.8
2019-02-10T07:57:10.985Z,23.9
2019-02-10T07:58:00.013Z,23.9
2019-02-10T07:58:50.817Z,24
2019-02-10T07:59:41.403Z,24.1
2019-02-10T08:00:31.237Z,24.1
2019-02-10T08:01:21.277Z,24.2
2019-02-10T08:02:11.807Z,24.3
2019-02-10T08:03:00.544Z,24.3
2019-02-10T08:03:51.153Z,24.3
2019-02-10T08:04:41.492Z,24.3
2019-02-10T08:05:31.547Z,24.1
2019-02-10T08:06:20.574Z,24.1
2019-02-10T08:07:13.549Z,24
2019-02-10T08:08:01.732Z,23.9
2019-02-10T08:08:54.194Z,23.9
2019-02-10T08:09:41.812Z,23.9
2019-02-10T08:10:31.588Z,23.8
2019-02-10T08:11:21.647Z,23.8
2019-02-10T08:12:12.481Z,23.8
2019-02-10T08:13:02.287Z,23.7
2019-02-10T08:13:52.051Z,23.6
2019-02-10T08:14:42.414Z,23.6
2019-02-10T08:15:31.412Z,23.6
2019-02-10T08:16:22.509Z,23.5
2019-02-10T08:17:12.844Z,23.4
2019-02-10T08:18:01.529Z,23.4
2019-02-10T08:18:52.681Z,23.5
2019-02-10T08:19:43.076Z,23.6
2019-02-10T08:20:33.073Z,23.6
2019-02-10T08:21:23.651Z,23.7
2019-02-10T08:22:13.203Z,23.8
2019-02-10T08:23:02.414Z,23.8
2019-02-10T08:23:53.293Z,23.9
2019-02-10T08:24:41.758Z,23.9
2019-02-10T08:25:33.486Z,24
2019-02-10T08:26:23.516Z,24.1
2019-02-10T08:27:13.266Z,24.3
2019-02-10T08:28:03.414Z,24.3
2019-02-10T08:28:52.982Z,24.2
2019-02-10T08:29:45.297Z,24.1
2019-02-10T08:30:32.928Z,24.1
2019-02-10T08:31:23.036Z,24
2019-02-10T08:32:13.330Z,23.9
2019-02-10T08:33:03.108Z,23.9
2019-02-10T08:33:53.988Z,23.8
2019-02-10T08:34:42.470Z,23.8
2019-02-10T08:35:34.599Z,23.7
2019-02-10T08:36:23.897Z,23.8
2019-02-10T08:37:13.968Z,23.7
2019-02-10T08:38:03.477Z,23.6
2019-02-10T08:39:01.515Z,23.6
2019-02-10T08:39:44.122Z,23.5
2019-02-10T08:40:33.495Z,23.4
2019-02-10T08:41:24.260Z,23.4
2019-02-10T08:42:13.741Z,23.4
2019-02-10T08:43:04.367Z,23.3
2019-02-10T08:43:53.662Z,23.5
2019-02-10T08:44:43.712Z,23.5
2019-02-10T08:45:33.970Z,23.6
2019-02-10T08:46:24.860Z,23.6
2019-02-10T08:47:14.914Z,23.7
2019-02-10T08:48:05.322Z,23.8
2019-02-10T08:48:54.769Z,23.8
2019-02-10T08:49:44.774Z,23.9
2019-02-10T08:50:34.639Z,23.9
2019-02-10T08:51:24.670Z,24.1
2019-02-10T08:52:14.714Z,24.2
2019-02-10T08:53:04.041Z,24.3
2019-02-10T08:53:55.106Z,24.3
2019-02-10T08:54:45.200Z,24.4
2019-02-10T08:55:35.284Z,24.4
2019-02-10T08:56:25.564Z,24.4
2019-02-10T08:57:15.637Z,24.4
2019-02-10T08:58:04.674Z,24.4
2019-02-10T08:58:54.921Z,24.4
2019-02-10T08:59:45.251Z,24.4
2019-02-10T09:00:35.361Z,24.4
2019-02-10T09:01:24.838Z,24.4
2019-02-10T09:02:15.496Z,24.3
2019-02-10T09:03:06.325Z,24.3
2019-02-10T09:03:55.596Z,24.4
2019-02-10T09:04:45.947Z,24.4
2019-02-10T09:05:35.661Z,24.4
2019-02-10T09:06:24.686Z,24.4
2019-02-10T09:07:18.062Z,24.3
2019-02-10T09:08:06.148Z,24.3
2019-02-10T09:09:04.888Z,24.1
2019-02-10T09:09:46.273Z,24.1
2019-02-10T09:10:36.377Z,24
2019-02-10T09:11:26.113Z,23.9
2019-02-10T09:12:16.737Z,23.9
2019-02-10T09:13:06.735Z,23.8
2019-02-10T09:13:56.025Z,23.8
2019-02-10T09:14:46.039Z,23.8
2019-02-10T09:15:37.165Z,23.8
2019-02-10T09:16:25.925Z,23.8
2019-02-10T09:17:16.748Z,23.8
2019-02-10T09:18:06.886Z,23.8
2019-02-10T09:18:56.882Z,23.8
2019-02-10T09:19:46.927Z,23.8
2019-02-10T09:20:36.421Z,23.8
2019-02-10T09:21:26.747Z,23.7
2019-02-10T09:22:17.094Z,23.7
2019-02-10T09:23:07.425Z,23.7
2019-02-10T09:23:57.757Z,23.8
2019-02-10T09:24:46.432Z,23.8
2019-02-10T09:25:37.637Z,23.9
2019-02-10T09:26:27.355Z,23.9
2019-02-10T09:27:17.137Z,24
2019-02-10T09:28:06.924Z,24.1
2019-02-10T09:28:57.823Z,24.2
2019-02-10T09:29:47.147Z,24.2
2019-02-10T09:30:36.842Z,24.1
2019-02-10T09:31:28.022Z,24.1
2019-02-10T09:32:17.786Z,24
2019-02-10T09:33:07.571Z,23.9
2019-02-10T09:33:57.629Z,23.8
2019-02-10T09:34:47.679Z,23.8
2019-02-10T09:35:37.733Z,23.8
2019-02-10T09:36:28.389Z,23.7
2019-02-10T09:37:17.634Z,23.7
2019-02-10T09:38:07.918Z,23.6
2019-02-10T09:38:58.289Z,23.6
2019-02-10T09:39:48.331Z,23.6
2019-02-10T09:40:38.674Z,23.6
2019-02-10T09:41:28.978Z,23.6
2019-02-10T09:42:18.218Z,23.6
2019-02-10T09:43:08.278Z,23.6
2019-02-10T09:43:58.382Z,23.6
2019-02-10T09:44:48.393Z,23.6
2019-02-10T09:45:38.431Z,23.6
2019-02-10T09:46:29.398Z,23.6
2019-02-10T09:47:18.867Z,23.7
2019-02-10T09:48:09.193Z,23.8
2019-02-10T09:48:58.926Z,23.8
2019-02-10T09:49:48.778Z,23.9
2019-02-10T09:50:38.798Z,24.1
2019-02-10T09:51:29.666Z,24.1
2019-02-10T09:52:18.601Z,24.2
2019-02-10T09:53:07.933Z,24.1
2019-02-10T09:53:59.324Z,24.1
2019-02-10T09:54:49.340Z,24
2019-02-10T09:55:39.687Z,23.9
2019-02-10T09:56:29.765Z,23.8
2019-02-10T09:57:18.974Z,23.8
2019-02-10T09:58:09.013Z,23.7
2019-02-10T09:58:59.908Z,23.7
2019-02-10T09:59:49.687Z,23.6
2019-02-10T10:00:40.049Z,23.6
2019-02-10T10:01:29.852Z,23.6
2019-02-10T10:02:20.237Z,23.6
2019-02-10T10:03:10.493Z,23.5
2019-02-10T10:04:00.307Z,23.5
2019-02-10T10:04:50.319Z,23.5
2019-02-10T10:07:17.844Z,23.5
2019-02-10T10:08:07.907Z,23.5
2019-02-10T10:08:58.227Z,23.6
2019-02-10T10:09:47.730Z,23.6
2019-02-10T10:10:37.792Z,23.7
2019-02-10T10:11:28.389Z,23.8
2019-02-10T10:12:17.959Z,23.9
2019-02-10T10:13:08.542Z,23.9
2019-02-10T10:13:57.724Z,24.1
2019-02-10T10:14:47.532Z,24.2
2019-02-10T10:15:38.686Z,24.1
2019-02-10T10:16:28.469Z,24.1
2019-02-10T10:17:18.526Z,23.9
2019-02-10T10:18:08.041Z,23.9
2019-02-10T10:18:58.428Z,23.8
2019-02-10T10:19:48.136Z,23.7
2019-02-10T10:20:38.756Z,23.6
2019-02-10T10:21:28.297Z,23.6
2019-02-10T10:22:18.869Z,23.6
2019-02-10T10:23:08.398Z,23.5
2019-02-10T10:23:59.026Z,23.5
2019-02-10T10:24:57.076Z,23.4
2019-02-10T10:25:38.526Z,23.4
2019-02-10T10:26:29.168Z,23.4
2019-02-10T10:27:19.223Z,23.4
2019-02-10T10:28:09.587Z,23.4
2019-02-10T10:28:59.420Z,23.4
2019-02-10T10:29:49.658Z,23.4
2019-02-10T10:30:39.435Z,23.5
2019-02-10T10:31:29.785Z,23.5
2019-02-10T10:32:19.630Z,23.6
2019-02-10T10:33:09.613Z,23.6
2019-02-10T10:33:59.193Z,23.8
2019-02-10T10:34:49.750Z,23.8
2019-02-10T10:35:39.491Z,23.9
2019-02-10T10:36:30.171Z,24
2019-02-10T10:37:20.314Z,24.1
2019-02-10T10:38:09.690Z,24.1
2019-02-10T10:38:59.749Z,24
2019-02-10T10:39:50.076Z,23.9
2019-02-10T10:40:40.271Z,23.8
2019-02-10T10:41:30.506Z,23.8
2019-02-10T10:42:19.991Z,23.7
2019-02-10T10:43:10.374Z,23.6
2019-02-10T10:44:00.648Z,23.6
2019-02-10T10:44:50.703Z,23.6
2019-02-10T10:45:40.478Z,23.5
2019-02-10T10:46:30.548Z,23.4
2019-02-10T10:47:20.583Z,23.5
2019-02-10T10:48:10.383Z,23.4
2019-02-10T10:49:00.728Z,23.4
2019-02-10T10:49:50.561Z,23.4
2019-02-10T10:50:41.113Z,23.4
2019-02-10T10:51:30.883Z,23.4
2019-02-10T10:52:20.980Z,23.4
2019-02-10T10:53:10.275Z,23.4
2019-02-10T10:54:00.830Z,23.5
2019-02-10T10:54:51.108Z,23.6
2019-02-10T10:55:41.190Z,23.6
2019-02-10T10:56:30.770Z,23.7
2019-02-10T10:57:25.702Z,23.8
2019-02-10T10:58:11.364Z,23.9
2019-02-10T10:59:01.682Z,23.9
2019-02-10T10:59:51.728Z,24.1
2019-02-10T11:00:41.242Z,24
2019-02-10T11:01:33.406Z,23.9
2019-02-10T11:02:21.901Z,23.8
2019-02-10T11:03:11.217Z,23.6
2019-02-10T11:04:02.028Z,23.6
2019-02-10T11:04:52.112Z,23.5
2019-02-10T11:05:41.605Z,23.4
2019-02-10T11:06:33.947Z,23.4
2019-02-10T11:07:21.989Z,23.3
2019-02-10T11:08:11.512Z,23.3
2019-02-10T11:09:02.155Z,23.3
2019-02-10T11:09:52.164Z,23.3
2019-02-10T11:10:42.228Z,23.3
2019-02-10T11:11:32.565Z,23.3
2019-02-10T11:12:21.574Z,23.3
2019-02-10T11:13:12.127Z,23.3
2019-02-10T11:14:02.431Z,23.3
2019-02-10T11:14:52.504Z,23.3
2019-02-10T11:15:42.569Z,23.3
2019-02-10T11:16:32.536Z,23.3
2019-02-10T11:17:22.424Z,23.3
2019-02-10T11:18:12.203Z,23.3
2019-02-10T11:19:02.346Z,23.4
2019-02-10T11:19:52.931Z,23.4
2019-02-10T11:20:42.704Z,23.6
2019-02-10T11:21:31.708Z,23.7
2019-02-10T11:22:21.987Z,23.8
2019-02-10T11:23:12.336Z,23.8
2019-02-10T11:24:03.438Z,23.7
2019-02-10T11:24:53.009Z,23.6
2019-02-10T11:25:42.581Z,23.5
2019-02-10T11:26:33.116Z,23.4
2019-02-10T11:27:23.240Z,23.4
2019-02-10T11:28:12.923Z,23.3
2019-02-10T11:29:02.713Z,23.2
2019-02-10T11:29:53.055Z,23.2
2019-02-10T11:30:43.123Z,23.2
2019-02-10T11:31:33.247Z,23.2
2019-02-10T11:32:23.293Z,23.1
2019-02-10T11:33:13.038Z,23.1
2019-02-10T11:34:03.629Z,23.1
2019-02-10T11:34:52.585Z,23.2
2019-02-10T11:35:43.227Z,23.1
2019-02-10T11:36:33.838Z,23.2
2019-02-10T11:37:33.584Z,23.2
2019-02-10T11:38:13.955Z,23
2019-02-10T11:39:03.710Z,23
2019-02-10T11:39:54.047Z,22.9
2019-02-10T11:40:43.520Z,23
2019-02-10T11:41:33.875Z,23.1
2019-02-10T11:42:24.215Z,23.1
2019-02-10T11:43:13.991Z,23.1
2019-02-10T11:44:03.215Z,23.3
2019-02-10T11:44:54.119Z,23.4
2019-02-10T11:45:44.432Z,23.5
2019-02-10T11:46:33.924Z,23.5
2019-02-10T11:47:24.022Z,23.6
2019-02-10T11:48:15.197Z,23.4
2019-02-10T11:49:04.682Z,23.4
2019-02-10T11:49:54.174Z,23.3
2019-02-10T11:50:44.849Z,23.3
2019-02-10T11:51:34.304Z,23.2
2019-02-10T11:52:24.904Z,23.1
2019-02-10T11:53:14.379Z,23.1
2019-02-10T11:54:04.802Z,23
2019-02-10T11:54:54.826Z,23
2019-02-10T11:55:45.141Z,23
2019-02-10T11:56:35.201Z,23
2019-02-10T11:57:24.688Z,22.9
2019-02-10T11:58:15.289Z,22.9
2019-02-10T11:59:19.960Z,23
2019-02-10T11:59:55.420Z,23
2019-02-10T12:00:45.528Z,23
2019-02-10T12:01:34.776Z,22.9
2019-02-10T12:02:25.508Z,22.9
2019-02-10T12:03:15.591Z,22.9
2019-02-10T12:04:45.051Z,22.9
2019-02-10T12:07:16.908Z,23.2
2019-02-10T12:08:06.641Z,23.4
2019-02-10T12:08:56.968Z,23.5
2019-02-10T12:10:37.628Z,23.4
2019-02-10T12:11:42.073Z,23.4
2019-02-10T12:12:17.252Z,23.3
2019-02-10T12:13:07.779Z,23.3
2019-02-10T12:13:58.133Z,23.3
2019-02-10T12:14:47.957Z,23.2
2019-02-10T12:15:37.117Z,23.1
2019-02-10T12:16:26.663Z,23.1
2019-02-10T12:17:18.025Z,23.1
2019-02-10T12:18:07.623Z,23.1
2019-02-10T12:18:58.472Z,23.1
2019-02-10T12:19:47.450Z,23.2
2019-02-10T12:20:38.389Z,23.1
2019-02-10T12:21:27.550Z,23.2
2019-02-10T12:22:18.370Z,23.2
2019-02-10T12:23:23.172Z,23.3
2019-02-10T12:23:58.909Z,23.3
2019-02-10T12:24:48.352Z,23.1
2019-02-10T12:25:39.268Z,23
2019-02-10T12:26:28.490Z,22.9
2019-02-10T12:27:19.356Z,22.9
2019-02-10T12:28:08.313Z,23
2019-02-10T12:28:58.649Z,23.1
2019-02-10T12:29:48.411Z,23.1
2019-02-10T12:30:39.040Z,23.3
2019-02-10T12:31:29.133Z,23.4
2019-02-10T12:32:19.142Z,23.5
2019-02-10T12:33:09.241Z,23.6
2019-02-10T12:33:59.069Z,23.5
2019-02-10T12:34:49.707Z,23.4
2019-02-10T12:35:39.107Z,23.3
2019-02-10T12:36:30.211Z,23.3
2019-02-10T12:37:18.993Z,23.2
2019-02-10T12:38:09.327Z,23.1
2019-02-10T12:38:59.556Z,23.1
2019-02-10T12:39:49.151Z,23.1
2019-02-10T12:40:39.556Z,23
2019-02-10T12:41:30.241Z,22.9
2019-02-10T12:42:19.014Z,22.9
2019-02-10T12:43:10.489Z,23
2019-02-10T12:43:59.779Z,23
2019-02-10T12:44:50.306Z,23
2019-02-10T12:45:40.093Z,23.1
2019-02-10T12:46:29.881Z,23.1
2019-02-10T12:47:20.447Z,23.1
2019-02-10T12:48:16.802Z,23.1
2019-02-10T12:49:00.041Z,23
2019-02-10T12:49:50.728Z,23
2019-02-10T12:50:40.155Z,23
2019-02-10T12:51:30.505Z,23.1
2019-02-10T12:52:20.301Z,23.1
2019-02-10T12:53:11.143Z,23.3
2019-02-10T12:54:00.663Z,23.3
2019-02-10T12:54:49.584Z,23.5
2019-02-10T12:55:40.782Z,23.6
2019-02-10T12:56:31.128Z,23.6
2019-02-10T12:57:20.101Z,23.6
2019-02-10T12:58:10.958Z,23.4
2019-02-10T12:59:00.740Z,23.4
2019-02-10T12:59:51.047Z,23.3
2019-02-10T13:00:42.967Z,23.3
2019-02-10T13:01:29.773Z,23.2
2019-02-10T13:02:20.967Z,23.1
2019-02-10T13:03:11.589Z,23.1
2019-02-10T13:04:01.670Z,22.9
2019-02-10T13:04:51.985Z,22.9
2019-02-10T13:05:40.927Z,22.9
2019-02-10T13:06:31.007Z,22.9
2019-02-10T13:07:20.754Z,22.9
2019-02-10T13:08:11.658Z,22.9
2019-02-10T13:09:01.512Z,23
2019-02-10T13:09:51.780Z,23
2019-02-10T13:10:41.546Z,23
2019-02-10T13:11:32.159Z,23
2019-02-10T13:12:21.949Z,22.9
2019-02-10T13:13:19.712Z,22.9
2019-02-10T13:14:01.762Z,23
2019-02-10T13:14:51.264Z,23.1
2019-02-10T13:15:41.894Z,23.1
2019-02-10T13:16:32.771Z,23.2
2019-02-10T13:17:22.376Z,23.3
2019-02-10T13:18:12.912Z,23.4
2019-02-10T13:19:02.701Z,23.6
2019-02-10T13:19:51.904Z,23.6
2019-02-10T13:20:41.977Z,23.7
2019-02-10T13:21:31.751Z,23.6
2019-02-10T13:22:22.411Z,23.6
2019-02-10T13:23:11.866Z,23.4
2019-02-10T13:24:02.468Z,23.4
2019-02-10T13:24:52.536Z,23.3
2019-02-10T13:25:43.159Z,23.2
2019-02-10T13:26:31.945Z,23.1
2019-02-10T13:27:22.433Z,23.1
2019-02-10T13:28:12.770Z,23
2019-02-10T13:29:03.383Z,23
2019-02-10T13:29:53.173Z,22.9
2019-02-10T13:30:43.516Z,22.9
2019-02-10T13:31:32.488Z,22.9
2019-02-10T13:32:23.383Z,22.9
2019-02-10T13:33:13.363Z,22.8
2019-02-10T13:34:03.241Z,22.8
2019-02-10T13:34:54.150Z,22.8
2019-02-10T13:35:43.568Z,22.9
2019-02-10T13:36:33.085Z,22.9
2019-02-10T13:37:23.708Z,22.9
2019-02-10T13:38:13.747Z,22.9
2019-02-10T13:39:03.043Z,23
2019-02-10T13:39:53.590Z,23.1
2019-02-10T13:40:43.937Z,23.1
2019-02-10T13:41:33.972Z,23.3
2019-02-10T13:42:24.042Z,23.4
2019-02-10T13:43:14.090Z,23.5
2019-02-10T13:44:03.665Z,23.6
2019-02-10T13:44:54.299Z,23.7
2019-02-10T13:45:43.781Z,23.6
2019-02-10T13:46:34.890Z,23.5
2019-02-10T13:47:24.922Z,23.4
2019-02-10T13:48:14.183Z,23.3
2019-02-10T13:49:04.227Z,23.2
2019-02-10T13:49:54.828Z,23.1
2019-02-10T13:50:44.340Z,23.1
2019-02-10T13:51:34.741Z,23
2019-02-10T13:52:23.629Z,22.9
2019-02-10T13:53:16.331Z,22.9
2019-02-10T13:54:05.124Z,22.9
2019-02-10T13:54:54.424Z,22.8
2019-02-10T13:55:45.242Z,22.8
2019-02-10T13:56:36.660Z,22.8
2019-02-10T13:57:24.381Z,22.8
2019-02-10T13:58:14.449Z,22.8
2019-02-10T13:59:05.526Z,22.8
2019-02-10T13:59:55.048Z,22.8
2019-02-10T14:00:45.322Z,22.8
2019-02-10T14:01:35.456Z,22.8
2019-02-10T14:02:25.171Z,22.8
2019-02-10T14:03:13.908Z,22.9
2019-02-10T14:04:05.065Z,22.9
2019-02-10T14:04:55.624Z,23
2019-02-10T14:05:45.948Z,23.1
2019-02-10T14:08:17.583Z,23.4
2019-02-10T14:09:08.708Z,23.6
2019-02-10T14:09:57.137Z,23.5
2019-02-10T14:10:47.298Z,23.4
2019-02-10T14:11:36.521Z,23.3
2019-02-10T14:12:27.098Z,23.3
2019-02-10T14:13:17.618Z,23.1
2019-02-10T14:14:07.991Z,23
2019-02-10T14:14:57.775Z,22.9
2019-02-10T14:15:47.546Z,22.9
2019-02-10T14:16:37.953Z,22.9
2019-02-10T14:17:27.653Z,22.8
2019-02-10T14:18:17.785Z,22.8
2019-02-10T14:19:07.561Z,22.7
2019-02-10T14:19:58.373Z,22.7
2019-02-10T14:20:47.595Z,22.6
2019-02-10T14:21:38.240Z,22.6
2019-02-10T14:22:27.562Z,22.6
2019-02-10T14:23:18.375Z,22.6
2019-02-10T14:24:08.667Z,22.6
2019-02-10T14:24:58.735Z,22.6
2019-02-10T14:25:47.695Z,22.6
2019-02-10T14:26:38.605Z,22.7
2019-02-10T14:27:27.522Z,22.8